createdAt,value
2022-08-18T00:00:00.486Z,8.70
2022-08-18T00:04:17.639Z,8.90
2022-08-18T00:08:06.794Z,9.10
2022-08-18T00:12:11.716Z,9.00
2022-08-18T00:16:12.839Z,9.80
2022-08-18T00:20:17.756Z,10.57
2022-08-18T00:24:18.996Z,9.63
2022-08-18T00:28:20.240Z,9.13
2022-08-18T00:32:26.264Z,8.67
2022-08-18T00:36:28.026Z,9.17
2022-08-18T00:40:37.629Z,9.43
2022-08-18T00:44:35.581Z,9.03
2022-08-18T00:48:36.835Z,8.90
2022-08-18T00:52:38.559Z,9.73
2022-08-18T00:56:45.708Z,9.90
2022-08-18T01:00:50.290Z,9.37
2022-08-18T01:05:01.404Z,8.17
2022-08-18T01:09:03.265Z,10.80
2022-08-18T01:13:05.212Z,8.80
2022-08-18T01:17:24.718Z,9.73
2022-08-18T01:21:47.328Z,10.07
2022-08-18T01:25:59.748Z,10.90
2022-08-18T01:30:09.518Z,10.80
2022-08-18T01:34:10.744Z,9.83
2022-08-18T01:38:12.637Z,8.97
2022-08-18T01:42:18.237Z,9.60
2022-08-18T01:46:20.803Z,10.17
2022-08-18T01:50:22.045Z,10.07
2022-08-18T01:54:23.266Z,12.07
2022-08-18T01:58:31.059Z,10.13
2022-08-18T02:02:33.191Z,10.80
2022-08-18T02:06:34.401Z,10.53
2022-08-18T02:10:35.796Z,10.23
2022-08-18T02:14:38.431Z,10.60
2022-08-18T02:18:47.711Z,9.80
2022-08-18T02:22:43.501Z,9.73
2022-08-18T02:26:45.232Z,9.80
2022-08-18T02:30:46.449Z,9.77
2022-08-18T02:34:47.676Z,9.90
2022-08-18T02:38:56.665Z,10.40
2022-08-18T02:42:52.315Z,11.40
2022-08-18T02:46:54.356Z,10.70
2022-08-18T02:51:08.849Z,10.00
2022-08-18T02:55:10.893Z,10.63
2022-08-18T02:59:15.906Z,9.70
2022-08-18T03:03:17.844Z,9.93
2022-08-18T03:07:19.080Z,10.40
2022-08-18T03:11:24.019Z,10.00
2022-08-18T03:15:26.184Z,10.10
2022-08-18T03:19:29.282Z,11.77
2022-08-18T03:23:30.610Z,10.53
2022-08-18T03:27:32.435Z,10.87
2022-08-18T03:31:35.697Z,11.40
2022-08-18T03:35:37.188Z,10.30
2022-08-18T03:39:39.857Z,11.10
2022-08-18T03:43:50.578Z,10.87
2022-08-18T03:47:45.206Z,11.17
2022-08-18T03:51:48.022Z,10.73
2022-08-18T03:55:49.228Z,10.90
2022-08-18T03:59:50.445Z,10.70
2022-08-18T04:03:55.978Z,10.60
2022-08-18T04:07:57.318Z,10.80
2022-08-18T04:12:05.412Z,11.13
2022-08-18T04:16:08.914Z,10.53
2022-08-18T04:20:12.213Z,10.83
2022-08-18T04:24:14.137Z,11.20
2022-08-18T04:28:15.256Z,10.77
2022-08-18T04:32:16.898Z,8.93
2022-08-18T04:36:18.725Z,8.80
2022-08-18T04:40:25.038Z,9.07
2022-08-18T04:44:24.161Z,8.87
2022-08-18T04:48:25.320Z,8.63
2022-08-18T04:52:45.065Z,8.90
2022-08-18T04:56:46.270Z,7.67
2022-08-18T05:00:57.584Z,8.90
2022-08-18T05:05:00.642Z,9.10
2022-08-18T05:09:06.609Z,8.70
2022-08-18T05:13:09.026Z,8.50
2022-08-18T05:17:11.536Z,8.10
2022-08-18T05:21:14.861Z,7.93
2022-08-18T05:25:16.750Z,9.10
2022-08-18T05:29:22.443Z,8.77
2022-08-18T05:33:25.250Z,8.93
2022-08-18T05:37:31.554Z,8.33
2022-08-18T05:41:38.403Z,7.37
2022-08-18T05:45:41.111Z,9.30
2022-08-18T05:49:44.752Z,7.67
2022-08-18T05:54:04.266Z,7.90
2022-08-18T05:58:17.840Z,8.90
2022-08-18T06:02:29.045Z,8.27
2022-08-18T06:06:32.091Z,7.47
2022-08-18T06:10:33.814Z,7.43
2022-08-18T06:14:37.953Z,8.13
2022-08-18T06:19:00.991Z,8.33
2022-08-18T06:23:39.911Z,7.67
2022-08-18T06:27:57.925Z,8.67
2022-08-18T06:32:13.666Z,8.53
2022-08-18T06:36:19.259Z,8.33
2022-08-18T06:40:20.612Z,13.90
2022-08-18T06:44:31.811Z,8.70
2022-08-18T06:48:39.652Z,9.43
2022-08-18T06:52:55.932Z,9.93
2022-08-18T06:56:58.159Z,8.70
2022-08-18T07:01:02.850Z,8.30
2022-08-18T07:05:07.992Z,8.50
2022-08-18T07:09:24.753Z,9.50
2022-08-18T07:13:29.992Z,8.80
2022-08-18T07:17:42.349Z,8.20
2022-08-18T07:21:40.290Z,19.17
2022-08-18T07:25:44.632Z,9.37
2022-08-18T07:30:15.427Z,8.43
2022-08-18T07:34:36.400Z,10.43
2022-08-18T07:38:47.569Z,9.40
2022-08-18T07:43:01.983Z,9.80
2022-08-18T07:47:05.241Z,9.70
2022-08-18T07:51:23.091Z,8.40
2022-08-18T07:55:32.768Z,8.80
2022-08-18T07:59:49.937Z,9.70
2022-08-18T08:04:00.911Z,8.60
2022-08-18T08:08:09.491Z,8.53
2022-08-18T08:12:37.516Z,8.00
2022-08-18T08:16:48.528Z,9.00
2022-08-18T08:20:53.562Z,9.40
2022-08-18T08:25:10.653Z,9.13
2022-08-18T08:29:28.433Z,8.67
2022-08-18T08:33:39.665Z,9.33
2022-08-18T08:37:50.911Z,9.17
2022-08-18T08:42:30.978Z,9.90
2022-08-18T08:46:29.695Z,9.40
2022-08-18T08:50:34.771Z,10.17
2022-08-18T08:54:45.392Z,11.37
2022-08-18T08:58:56.432Z,10.47
2022-08-18T09:03:29.980Z,10.30
2022-08-18T09:07:59.171Z,10.63
2022-08-18T09:12:04.623Z,9.90
2022-08-18T09:16:37.929Z,9.87
2022-08-18T09:20:59.611Z,9.20
2022-08-18T09:25:01.074Z,8.63
2022-08-18T09:29:43.934Z,10.30
2022-08-18T09:34:10.592Z,10.00
2022-08-18T09:38:31.811Z,10.00
2022-08-18T09:46:52.328Z,10.87
2022-08-18T09:50:57.189Z,11.10
2022-08-18T09:55:02.438Z,11.20
2022-08-18T09:59:09.803Z,13.70
2022-08-18T10:03:14.829Z,14.37
2022-08-18T10:12:06.153Z,14.37
2022-08-18T10:16:22.103Z,17.60
2022-08-18T10:20:38.141Z,17.50
2022-08-18T10:24:58.477Z,15.23
2022-08-18T10:29:06.214Z,17.53
2022-08-18T10:33:18.384Z,17.00
2022-08-18T10:37:20.697Z,22.43
2022-08-18T10:41:30.185Z,20.67
2022-08-18T10:46:05.944Z,20.33
2022-08-18T10:49:50.380Z,15.63
2022-08-18T10:54:13.618Z,14.47
2022-08-18T10:58:24.026Z,19.10
2022-08-18T11:02:30.077Z,22.70
2022-08-18T11:06:44.233Z,18.37
2022-08-18T11:19:22.087Z,21.67
2022-08-18T11:23:24.719Z,18.33
2022-08-18T11:27:30.740Z,20.27
2022-08-18T11:31:32.581Z,25.37
2022-08-18T11:35:53.501Z,23.53
2022-08-18T11:39:58.142Z,25.10
2022-08-18T11:44:01.680Z,25.07
2022-08-18T11:48:37.607Z,23.80
2022-08-18T11:52:34.668Z,22.17
2022-08-18T11:56:38.608Z,23.13
2022-08-18T12:00:52.870Z,23.20
2022-08-18T12:05:02.890Z,22.10
2022-08-18T12:10:07.523Z,22.87
2022-08-18T12:13:34.372Z,20.20
2022-08-18T12:17:35.703Z,21.50
2022-08-18T12:21:44.495Z,21.30
2022-08-18T12:25:46.139Z,19.23
2022-08-18T12:29:52.995Z,20.53
2022-08-18T12:38:03.314Z,20.50
2022-08-18T12:42:00.284Z,20.23
2022-08-18T12:46:01.795Z,21.70
2022-08-18T12:50:03.168Z,20.10
2022-08-18T12:54:05.721Z,24.80
2022-08-18T12:58:09.051Z,20.77
2022-08-18T13:02:11.879Z,22.30
2022-08-18T13:06:14.337Z,22.00
2022-08-18T13:10:35.433Z,22.63
2022-08-18T13:14:20.375Z,24.60
2022-08-18T13:18:22.495Z,22.10
2022-08-18T13:22:32.162Z,22.47
2022-08-18T13:26:31.651Z,84.40
2022-08-18T13:30:35.533Z,21.77
2022-08-18T13:34:38.355Z,23.40
2022-08-18T13:38:43.466Z,21.33
2022-08-18T13:42:50.275Z,18.80
2022-08-18T13:46:53.701Z,19.13
2022-08-18T13:50:58.389Z,20.57
2022-08-18T13:55:02.716Z,21.27
2022-08-18T13:59:05.943Z,17.60
2022-08-18T14:03:09.700Z,18.90
2022-08-18T14:07:13.502Z,18.37
2022-08-18T14:11:15.240Z,15.97
2022-08-18T14:15:17.566Z,14.93
2022-08-18T14:19:38.613Z,16.00
2022-08-18T14:23:59.654Z,15.30
2022-08-18T14:28:03.881Z,12.60
2022-08-18T14:32:07.252Z,12.27
2022-08-18T14:36:09.830Z,13.67
2022-08-18T14:40:12.447Z,13.20
2022-08-18T14:44:16.873Z,12.37
2022-08-18T14:48:21.115Z,14.53
2022-08-18T14:52:23.429Z,14.17
2022-08-18T14:56:28.741Z,14.63
2022-08-18T15:00:28.316Z,14.30
2022-08-18T15:04:29.781Z,12.07
2022-08-18T15:08:34.552Z,11.93
2022-08-18T15:12:37.715Z,14.03
2022-08-18T15:16:39.888Z,12.87
2022-08-18T15:20:59.683Z,13.93
2022-08-18T15:25:21.272Z,14.60
2022-08-18T15:29:29.260Z,11.90
2022-08-18T15:33:31.577Z,13.90
2022-08-18T15:37:33.483Z,13.37
2022-08-18T15:41:44.503Z,12.80
2022-08-18T15:45:56.239Z,11.20
2022-08-18T15:49:47.611Z,10.47
2022-08-18T15:53:50.368Z,11.17
2022-08-18T15:57:57.903Z,12.17
2022-08-18T16:01:55.989Z,10.97
2022-08-18T16:05:57.585Z,11.10
2022-08-18T16:09:58.767Z,11.17
2022-08-18T16:14:00.088Z,12.60
2022-08-18T16:18:01.407Z,12.60
2022-08-18T16:22:04.665Z,12.93
2022-08-18T16:26:07.380Z,13.13
2022-08-18T16:30:15.524Z,12.50
2022-08-18T16:34:16.656Z,12.00
2022-08-18T16:38:19.899Z,11.40
2022-08-18T16:42:21.743Z,14.00
2022-08-18T16:46:26.578Z,19.33
2022-08-18T16:50:28.404Z,14.13
2022-08-18T16:54:30.411Z,13.73
2022-08-18T16:58:50.359Z,13.17
2022-08-18T17:03:10.634Z,11.57
2022-08-18T17:07:12.154Z,13.80
2022-08-18T17:11:18.265Z,11.97
2022-08-18T17:15:19.651Z,14.43
2022-08-18T17:19:27.466Z,17.70
2022-08-18T17:23:30.855Z,15.73
2022-08-18T17:27:37.558Z,14.47
2022-08-18T17:31:40.434Z,16.27
2022-08-18T17:35:44.765Z,14.63
2022-08-18T17:39:58.046Z,14.70
2022-08-18T17:44:00.993Z,14.30
2022-08-18T17:48:15.882Z,15.47
2022-08-18T17:52:20.309Z,14.90
2022-08-18T17:56:35.360Z,15.90
2022-08-18T18:00:33.179Z,15.90
2022-08-18T18:04:35.455Z,16.00
2022-08-18T18:08:49.242Z,16.30
2022-08-18T18:13:06.537Z,15.13
2022-08-18T18:17:15.270Z,16.13
2022-08-18T18:21:21.114Z,16.03
2022-08-18T18:25:34.560Z,16.17
2022-08-18T18:29:39.416Z,16.07
2022-08-18T18:33:41.952Z,17.03
2022-08-18T18:37:50.524Z,17.27
2022-08-18T18:41:53.021Z,16.83
2022-08-18T18:46:19.664Z,15.93
2022-08-18T18:50:25.301Z,16.20
2022-08-18T18:54:49.701Z,17.43
2022-08-18T18:59:10.712Z,16.50
2022-08-18T19:03:21.430Z,16.70
2022-08-18T19:07:49.409Z,16.10
2022-08-18T19:12:03.960Z,17.60
2022-08-18T19:16:24.154Z,18.07
2022-08-18T19:20:34.183Z,18.20
2022-08-18T19:24:39.207Z,15.67
2022-08-18T19:29:13.785Z,16.83
2022-08-18T19:32:56.893Z,17.80
2022-08-18T19:37:05.030Z,18.70
2022-08-18T19:41:15.110Z,17.00
2022-08-18T19:45:31.192Z,17.93
2022-08-18T19:50:00.734Z,18.03
2022-08-18T19:54:31.816Z,18.63
2022-08-18T19:59:15.479Z,19.70
2022-08-18T20:03:17.912Z,20.70
2022-08-18T20:07:55.477Z,19.40
2022-08-18T20:12:02.465Z,17.80
2022-08-18T20:16:10.209Z,19.57
2022-08-18T20:20:14.421Z,19.57
2022-08-18T20:24:36.405Z,19.80
2022-08-18T20:28:39.429Z,18.70
2022-08-18T20:32:40.980Z,20.00
2022-08-18T20:36:44.310Z,19.67
2022-08-18T20:40:49.149Z,18.80
2022-08-18T20:44:57.021Z,17.80
2022-08-18T20:49:08.257Z,20.03
2022-08-18T20:53:13.282Z,20.83
2022-08-18T20:57:18.445Z,18.60
2022-08-18T21:01:22.794Z,19.43
2022-08-18T21:05:33.335Z,18.10
2022-08-18T21:09:34.563Z,20.47
2022-08-18T21:13:42.130Z,17.60
2022-08-18T21:17:43.990Z,17.10
2022-08-18T21:21:48.637Z,18.27
2022-08-18T21:25:56.232Z,17.50
2022-08-18T21:30:01.555Z,17.13
2022-08-18T21:34:06.712Z,18.17
2022-08-18T21:38:11.742Z,17.30
2022-08-18T21:42:19.756Z,17.87
2022-08-18T21:46:27.397Z,18.13
2022-08-18T21:50:33.813Z,17.03
2022-08-18T21:54:35.540Z,16.47
2022-08-18T21:58:41.591Z,17.13
2022-08-18T22:02:44.111Z,17.37
2022-08-18T22:06:51.606Z,17.63
2022-08-18T22:11:59.396Z,18.20
2022-08-18T22:15:42.389Z,17.77
2022-08-18T22:19:43.740Z,16.60
2022-08-18T22:24:04.781Z,18.30
2022-08-18T22:28:05.991Z,16.57
2022-08-18T22:32:07.130Z,18.30
2022-08-18T22:36:09.698Z,17.03
2022-08-18T22:40:14.074Z,17.30
2022-08-18T22:44:15.648Z,17.23
2022-08-18T22:48:17.192Z,17.90
2022-08-18T22:52:30.280Z,19.33
2022-08-18T22:56:34.961Z,18.60
2022-08-18T23:00:35.563Z,16.97
2022-08-18T23:04:37.329Z,18.30
2022-08-18T23:08:55.831Z,17.07
2022-08-18T23:12:43.903Z,17.63
2022-08-18T23:16:46.431Z,17.20
2022-08-18T23:20:58.113Z,18.47
2022-08-18T23:24:59.338Z,17.97
2022-08-18T23:29:04.010Z,17.30
2022-08-18T23:33:06.709Z,19.10
2022-08-18T23:37:09.057Z,20.00
2022-08-18T23:41:13.171Z,20.37
2022-08-18T23:45:14.426Z,19.00
2022-08-18T23:49:15.758Z,19.40
2022-08-18T23:53:17.895Z,18.20
2022-08-18T23:57:19.123Z,18.87
